Time;durP1;ratioP1;P1;durP2;ratioP2;P2;SDS_P1;SDS_P2;PMS_P1;PMS_P2;Temp;Humidity;BMP_temperature;BMP_pressure;BME280_temperature;BME280_humidity;BME280_pressure;Samples;Min_cycle;Max_cycle;Signal;HPM_P1;HPM_P2
2022/08/16 00:01:12;;;;;;;2.78;1.40;;;23.00;58.50;;;;;;2262940;56;21534;-74
2022/08/16 00:03:38;;;;;;;2.90;1.55;;;23.00;58.50;;;;;;2259500;56;20966;-73
2022/08/16 00:06:05;;;;;;;2.75;1.30;;;23.00;58.50;;;;;;2262980;55;21001;-72
2022/08/16 00:08:31;;;;;;;2.60;1.30;;;23.00;58.50;;;;;;2355735;54;21024;-73
2022/08/16 00:10:57;;;;;;;2.58;1.50;;;23.00;58.50;;;;;;2262911;56;21045;-72
2022/08/16 00:13:23;;;;;;;2.53;1.45;;;23.00;58.50;;;;;;2267016;55;20989;-73
2022/08/16 00:15:50;;;;;;;3.55;1.80;;;23.00;58.50;;;;;;2249837;55;21049;-74
2022/08/16 00:18:18;;;;;;;2.92;1.65;;;23.00;58.60;;;;;;2270206;56;20972;-72
2022/08/16 00:20:45;;;;;;;2.20;1.23;;;23.00;58.50;;;;;;2266062;56;21021;-73
2022/08/16 00:23:20;;;;;;;2.42;1.40;;;23.00;58.50;;;;;;2264905;56;21054;-74
2022/08/16 00:25:47;;;;;;;2.67;1.40;;;23.00;58.60;;;;;;2264257;55;20953;-73
2022/08/16 00:28:13;;;;;;;3.00;1.60;;;23.00;58.40;;;;;;2261519;55;20942;-72
2022/08/16 00:30:39;;;;;;;3.55;1.60;;;23.00;58.50;;;;;;2263965;56;21817;-73
2022/08/16 00:33:06;;;;;;;3.25;1.67;;;23.00;58.50;;;;;;2264534;55;21013;-73
2022/08/16 00:35:34;;;;;;;2.80;1.60;;;23.00;58.50;;;;;;2486585;55;20993;-73
2022/08/16 00:38:02;;;;;;;6.25;1.90;;;23.00;58.60;;;;;;2261233;56;21458;-72
2022/08/16 00:40:40;;;;;;;2.33;1.23;;;23.00;58.50;;;;;;2262872;56;21361;-73
2022/08/16 00:43:12;;;;;;;3.25;1.70;;;23.00;58.70;;;;;;2263298;56;20961;-73
2022/08/16 00:49:14;;;;;;;2.60;1.20;;;23.00;58.50;;;;;;2266430;56;21781;-72
2022/08/16 00:51:41;;;;;;;3.28;1.17;;;23.00;58.50;;;;;;2265332;56;20982;-73
2022/08/16 00:54:07;;;;;;;4.07;1.37;;;23.00;58.10;;;;;;2267402;55;20957;-73
2022/08/16 00:56:36;;;;;;;3.20;1.58;;;23.00;58.30;;;;;;2487250;55;21063;-73
2022/08/16 00:59:03;;;;;;;3.00;1.50;;;23.00;58.40;;;;;;2402751;55;20965;-72
2022/08/16 01:01:31;;;;;;;3.75;1.80;;;23.00;58.40;;;;;;2265933;56;20962;-74
2022/08/16 01:03:59;;;;;;;3.87;1.58;;;23.00;58.40;;;;;;2263161;56;20992;-72
2022/08/16 01:06:25;;;;;;;3.05;1.42;;;23.00;58.40;;;;;;2263369;56;20949;-72
2022/08/16 01:08:55;;;;;;;3.75;2.08;;;23.00;58.40;;;;;;2266173;55;21029;-73
2022/08/16 01:11:22;;;;;;;2.55;1.40;;;23.00;58.40;;;;;;2378213;55;20941;-73
2022/08/16 01:13:48;;;;;;;2.90;1.40;;;23.00;58.40;;;;;;2267968;56;20990;-73
2022/08/16 01:16:20;;;;;;;2.92;1.60;;;23.00;58.40;;;;;;2263664;56;21533;-73
2022/08/16 01:19:06;;;;;;;2.67;1.67;;;23.00;58.50;;;;;;2264300;56;20954;-72
2022/08/16 01:21:57;;;;;;;2.37;1.50;;;23.00;58.40;;;;;;2463805;55;20993;-73
2022/08/16 01:24:28;;;;;;;2.95;1.60;;;23.00;58.50;;;;;;2484209;54;21046;-72
2022/08/16 01:27:25;;;;;;;4.35;1.80;;;23.00;58.40;;;;;;2488057;55;21715;-73
2022/08/16 01:30:06;;;;;;;2.35;1.25;;;23.00;58.70;;;;;;2263385;56;21013;-73
2022/08/16 01:32:37;;;;;;;3.50;1.67;;;23.00;58.50;;;;;;2268891;56;21005;-72
2022/08/16 01:35:05;;;;;;;3.50;1.40;;;23.00;58.40;;;;;;2264294;56;21878;-73
2022/08/16 01:37:41;;;;;;;3.12;1.67;;;23.00;58.40;;;;;;2484190;54;20962;-74
2022/08/16 01:40:08;;;;;;;4.12;2.15;;;23.00;58.60;;;;;;2259615;56;20948;-73
2022/08/16 01:42:34;;;;;;;3.12;1.90;;;23.00;58.50;;;;;;2263115;56;20972;-73
2022/08/16 01:45:01;;;;;;;3.85;1.67;;;23.00;58.50;;;;;;2391662;54;21008;-73
2022/08/16 01:47:27;;;;;;;4.03;1.83;;;23.00;58.50;;;;;;2267243;56;20973;-72
2022/08/16 01:49:53;;;;;;;3.78;2.05;;;23.00;58.50;;;;;;2261750;56;21099;-73
2022/08/16 01:52:19;;;;;;;2.80;1.77;;;23.00;58.50;;;;;;2266453;56;20970;-72
2022/08/16 01:54:49;;;;;;;3.80;1.90;;;23.00;58.50;;;;;;2265048;56;20920;-72
2022/08/16 01:57:15;;;;;;;3.53;1.73;;;23.00;58.40;;;;;;2269570;55;20965;-73
2022/08/16 01:59:41;;;;;;;2.95;1.58;;;23.00;58.40;;;;;;2263638;55;21033;-72
2022/08/16 02:02:08;;;;;;;3.85;1.87;;;23.00;58.40;;;;;;2479059;54;21864;-73
2022/08/16 02:04:34;;;;;;;2.92;1.60;;;23.00;58.40;;;;;;2268291;55;20976;-73
2022/08/16 02:07:07;;;;;;;2.78;1.42;;;23.00;58.30;;;;;;2262134;55;21017;-72
2022/08/16 02:09:36;;;;;;;2.87;1.37;;;23.00;58.30;;;;;;2267225;56;21013;-72
2022/08/16 02:12:02;;;;;;;2.37;1.40;;;23.00;58.20;;;;;;2262194;56;21057;-73
2022/08/16 02:14:29;;;;;;;3.40;1.50;;;23.00;58.20;;;;;;2264174;56;21734;-73
2022/08/16 02:16:56;;;;;;;2.92;1.30;;;23.00;58.10;;;;;;2487977;55;21068;-74
2022/08/16 02:19:26;;;;;;;2.95;1.37;;;23.00;58.10;;;;;;2262395;56;21851;-73
2022/08/16 02:21:53;;;;;;;2.50;1.30;;;23.00;58.10;;;;;;2259693;56;21054;-72
2022/08/16 02:24:20;;;;;;;2.40;1.33;;;23.00;58.10;;;;;;2479967;54;20990;-72
2022/08/16 02:26:47;;;;;;;2.80;1.40;;;23.00;58.00;;;;;;2266114;55;20989;-72
2022/08/16 02:29:13;;;;;;;2.17;1.15;;;23.00;58.00;;;;;;2262728;56;21060;-72
2022/08/16 02:31:39;;;;;;;5.35;1.60;;;23.00;58.00;;;;;;2265309;55;20977;-73
2022/08/16 02:34:07;;;;;;;2.78;1.55;;;23.00;58.10;;;;;;2414615;55;21040;-72
2022/08/16 02:36:36;;;;;;;3.03;1.35;;;22.90;58.10;;;;;;2348075;55;20941;-73
2022/08/16 02:39:02;;;;;;;2.92;1.30;;;22.90;58.10;;;;;;2267091;55;21080;-74
2022/08/16 02:41:29;;;;;;;2.22;1.33;;;22.90;58.10;;;;;;2260803;56;20957;-73
2022/08/16 02:43:56;;;;;;;2.33;1.30;;;22.90;58.10;;;;;;2389275;55;20989;-73
2022/08/16 02:46:22;;;;;;;2.83;1.20;;;22.90;58.10;;;;;;2263811;56;20964;-73
2022/08/16 02:48:48;;;;;;;2.17;1.15;;;22.90;58.10;;;;;;2262980;56;20960;-73
2022/08/16 02:51:15;;;;;;;3.42;1.73;;;22.90;58.10;;;;;;2268292;56;21018;-73
2022/08/16 02:53:44;;;;;;;2.60;1.50;;;22.90;58.20;;;;;;2359246;55;21065;-73
2022/08/16 02:56:11;;;;;;;3.22;1.70;;;22.90;58.20;;;;;;2270588;56;21537;-73
2022/08/16 02:58:38;;;;;;;2.78;1.50;;;22.90;58.20;;;;;;2342117;55;21017;-72
2022/08/16 03:01:05;;;;;;;3.15;1.58;;;22.90;58.20;;;;;;2267790;56;21028;-73
2022/08/16 03:03:33;;;;;;;2.67;1.33;;;22.90;58.20;;;;;;2266277;55;20977;-73
2022/08/16 03:05:59;;;;;;;2.80;1.35;;;22.90;58.20;;;;;;2335456;55;21037;-73
2022/08/16 03:08:26;;;;;;;2.50;1.45;;;22.90;58.20;;;;;;2267476;55;21001;-72
2022/08/16 03:10:52;;;;;;;3.20;1.55;;;22.80;58.10;;;;;;2266493;56;20977;-72
2022/08/16 03:13:18;;;;;;;3.92;1.67;;;22.90;58.20;;;;;;2264179;56;21026;-72
2022/08/16 03:15:45;;;;;;;3.20;1.85;;;22.90;58.20;;;;;;2268742;56;21033;-72
2022/08/16 03:18:12;;;;;;;2.78;1.50;;;22.90;58.20;;;;;;2262339;55;21829;-73
2022/08/16 03:20:38;;;;;;;2.55;1.35;;;22.80;58.10;;;;;;2371891;55;20961;-72
2022/08/16 03:23:04;;;;;;;2.60;1.48;;;22.80;58.10;;;;;;2260092;56;21028;-73
2022/08/16 03:25:32;;;;;;;2.30;1.20;;;22.80;58.10;;;;;;2295544;55;21119;-73
2022/08/16 03:27:58;;;;;;;2.58;1.37;;;22.80;58.10;;;;;;2486617;55;20956;-73
2022/08/16 03:30:29;;;;;;;2.58;1.40;;;22.80;58.00;;;;;;2265240;55;20937;-72
2022/08/16 03:32:56;;;;;;;3.10;1.67;;;22.70;58.00;;;;;;2267953;55;20981;-73
2022/08/16 03:35:24;;;;;;;3.03;1.42;;;22.80;58.00;;;;;;2488216;55;21001;-72
2022/08/16 03:37:56;;;;;;;3.30;1.30;;;22.70;57.90;;;;;;2247253;56;20993;-73
2022/08/16 03:40:23;;;;;;;2.57;1.40;;;22.80;58.00;;;;;;2366188;55;20961;-72
2022/08/16 03:42:49;;;;;;;2.53;1.35;;;22.70;57.90;;;;;;2264164;56;20949;-73
2022/08/16 03:45:16;;;;;;;2.53;1.42;;;22.70;57.90;;;;;;2326116;55;21436;-73
2022/08/16 03:47:44;;;;;;;3.10;1.50;;;22.70;57.90;;;;;;2465710;55;20980;-73
2022/08/16 03:50:13;;;;;;;2.78;1.48;;;22.70;57.90;;;;;;2302546;55;20978;-73
2022/08/16 03:52:40;;;;;;;2.95;1.70;;;22.70;57.90;;;;;;2315837;54;21756;-72
2022/08/16 03:55:08;;;;;;;3.97;1.58;;;22.60;57.80;;;;;;2343410;55;20992;-72
2022/08/16 03:57:34;;;;;;;2.75;1.30;;;22.60;57.80;;;;;;2268927;55;20965;-72
2022/08/16 04:00:12;;;;;;;3.22;1.67;;;22.60;57.80;;;;;;2272887;55;21068;-73
2022/08/16 04:02:41;;;;;;;2.62;1.50;;;22.60;57.80;;;;;;2262752;56;21376;-72
2022/08/16 04:05:08;;;;;;;4.18;1.40;;;22.50;57.70;;;;;;2317489;55;21781;-73
2022/08/16 04:07:35;;;;;;;2.55;1.20;;;22.50;57.70;;;;;;2296727;55;20974;-73
2022/08/16 04:10:04;;;;;;;4.15;1.42;;;22.50;57.70;;;;;;2264659;56;21012;-73
2022/08/16 04:12:31;;;;;;;5.22;1.37;;;22.40;57.60;;;;;;2267980;56;20961;-73
2022/08/16 04:14:58;;;;;;;3.30;1.45;;;22.40;57.60;;;;;;2263006;56;21335;-71
2022/08/16 04:17:24;;;;;;;2.67;1.45;;;22.40;57.70;;;;;;2349360;55;20989;-73
2022/08/16 04:19:50;;;;;;;2.65;1.23;;;22.40;57.60;;;;;;2264164;56;21376;-72
2022/08/16 04:22:18;;;;;;;2.78;1.60;;;22.30;57.50;;;;;;2393910;54;21794;-72
2022/08/16 04:24:44;;;;;;;2.70;1.25;;;22.30;57.60;;;;;;2265404;55;21711;-73
2022/08/16 04:27:11;;;;;;;2.83;1.50;;;22.20;57.50;;;;;;2422103;55;21005;-73
2022/08/16 04:29:37;;;;;;;2.60;1.40;;;22.20;57.50;;;;;;2259324;56;21012;-73
2022/08/16 04:32:03;;;;;;;3.30;1.45;;;22.20;57.60;;;;;;2265740;55;20988;-72
2022/08/16 04:34:33;;;;;;;3.22;1.60;;;22.20;57.60;;;;;;2264667;55;20964;-73
2022/08/16 04:36:59;;;;;;;3.87;1.12;;;22.10;57.60;;;;;;2262671;56;20985;-72
2022/08/16 04:39:26;;;;;;;2.60;1.50;;;22.10;57.60;;;;;;2243442;56;20993;-72
2022/08/16 04:41:52;;;;;;;3.30;1.37;;;22.10;57.60;;;;;;2263514;56;20972;-71
2022/08/16 04:44:19;;;;;;;2.20;1.25;;;22.00;57.50;;;;;;2263069;56;21034;-73
2022/08/16 04:46:45;;;;;;;2.80;1.30;;;22.00;57.60;;;;;;2261651;56;20952;-72
2022/08/16 04:49:12;;;;;;;2.62;1.40;;;22.00;57.60;;;;;;2269680;55;21036;-72
2022/08/16 04:51:42;;;;;;;2.47;1.50;;;21.90;57.60;;;;;;2263237;56;20952;-72
2022/08/16 04:54:08;;;;;;;2.90;1.50;;;21.90;57.70;;;;;;2259508;56;20957;-72
2022/08/16 04:56:35;;;;;;;3.15;1.80;;;21.90;57.80;;;;;;2263942;56;21425;-72
2022/08/16 04:59:01;;;;;;;4.07;2.40;;;21.90;58.00;;;;;;2264541;56;20969;-74
2022/08/16 05:01:28;;;;;;;3.92;2.10;;;21.80;58.10;;;;;;2264183;56;21576;-73
2022/08/16 05:03:54;;;;;;;2.95;1.80;;;21.80;58.30;;;;;;2389085;55;21017;-72
2022/08/16 05:06:21;;;;;;;2.95;1.80;;;21.80;58.30;;;;;;2361069;55;21092;-73
2022/08/16 05:08:49;;;;;;;3.33;1.92;;;21.80;58.30;;;;;;2264431;56;21020;-72
2022/08/16 05:11:19;;;;;;;2.83;1.50;;;21.80;58.30;;;;;;2263386;56;21009;-72
2022/08/16 05:13:46;;;;;;;2.40;1.50;;;21.80;58.30;;;;;;2261294;56;20972;-71
2022/08/16 05:16:16;;;;;;;3.12;1.48;;;21.80;58.30;;;;;;2260689;56;21029;-73
2022/08/16 05:18:42;;;;;;;2.15;1.17;;;21.80;58.30;;;;;;2361573;54;21016;-72
2022/08/16 05:21:08;;;;;;;2.47;1.48;;;21.80;58.30;;;;;;2263846;55;21016;-72
2022/08/16 05:23:35;;;;;;;3.30;1.70;;;21.80;58.90;;;;;;2263425;56;20992;-73
2022/08/16 05:26:02;;;;;;;3.45;1.65;;;21.80;58.40;;;;;;2360139;55;21001;-72
2022/08/16 05:28:28;;;;;;;3.55;2.03;;;21.80;58.40;;;;;;2258692;56;21050;-73
2022/08/16 05:30:57;;;;;;;2.50;1.37;;;21.80;58.50;;;;;;2385120;55;21938;-72
2022/08/16 05:33:24;;;;;;;4.90;1.67;;;21.80;58.40;;;;;;2430641;55;20968;-72
2022/08/16 05:35:50;;;;;;;2.80;1.40;;;21.80;59.00;;;;;;2266915;56;20947;-72
2022/08/16 05:38:17;;;;;;;2.30;1.30;;;21.80;58.40;;;;;;2266893;55;20977;-72
2022/08/16 05:40:44;;;;;;;2.78;1.60;;;21.80;58.40;;;;;;2265244;56;20933;-73
2022/08/16 05:43:11;;;;;;;2.50;1.40;;;21.80;58.50;;;;;;2263902;56;21014;-72
2022/08/16 05:45:38;;;;;;;2.78;1.60;;;21.80;58.50;;;;;;2264765;55;21047;-72
2022/08/16 05:48:04;;;;;;;3.00;1.80;;;21.80;58.50;;;;;;2265285;55;20957;-72
2022/08/16 05:50:30;;;;;;;3.00;1.77;;;21.80;58.60;;;;;;2270740;55;21082;-72
2022/08/16 05:52:57;;;;;;;3.22;2.00;;;21.80;58.60;;;;;;2289386;55;20977;-72
2022/08/16 05:55:23;;;;;;;4.60;2.50;;;21.80;58.80;;;;;;2265127;55;20949;-72
2022/08/16 05:57:49;;;;;;;3.10;1.75;;;21.80;58.80;;;;;;2304736;55;20969;-72
2022/08/16 06:00:16;;;;;;;2.72;1.65;;;21.80;58.80;;;;;;2261453;56;20965;-72
2022/08/16 06:02:42;;;;;;;3.00;1.50;;;21.80;58.80;;;;;;2264790;55;20953;-72
2022/08/16 06:05:10;;;;;;;3.05;1.67;;;21.80;58.80;;;;;;2266233;55;21065;-72
2022/08/16 06:07:37;;;;;;;2.97;1.80;;;21.90;59.00;;;;;;2487623;54;20981;-72
2022/08/16 06:10:03;;;;;;;5.20;2.15;;;21.90;59.00;;;;;;2259935;56;22108;-72
2022/08/16 06:12:30;;;;;;;3.05;1.95;;;21.90;59.10;;;;;;2263564;56;21478;-73
2022/08/16 06:15:02;;;;;;;4.55;2.10;;;21.90;59.10;;;;;;2263832;55;21033;-73
2022/08/16 06:17:29;;;;;;;4.00;2.22;;;21.90;59.20;;;;;;2265881;56;20993;-72
2022/08/16 06:19:56;;;;;;;3.20;2.00;;;22.00;59.30;;;;;;2264097;55;20930;-72
2022/08/16 06:22:23;;;;;;;3.22;1.83;;;22.00;59.30;;;;;;2267841;55;21089;-72
2022/08/16 06:24:49;;;;;;;3.72;1.92;;;22.00;59.20;;;;;;2300284;55;21021;-73
2022/08/16 06:27:18;;;;;;;3.80;1.98;;;22.00;59.20;;;;;;2262971;56;20973;-73
2022/08/16 06:29:44;;;;;;;3.33;1.90;;;22.00;59.20;;;;;;2264062;56;20984;-73
2022/08/16 06:32:10;;;;;;;3.67;2.33;;;22.10;59.30;;;;;;2299406;55;21442;-72
2022/08/16 06:34:37;;;;;;;3.85;1.98;;;22.10;59.40;;;;;;2484457;54;20982;-72
2022/08/16 06:37:04;;;;;;;3.87;2.30;;;22.20;59.50;;;;;;2264381;56;20962;-73
2022/08/16 06:39:30;;;;;;;3.25;1.85;;;22.20;59.50;;;;;;2265295;55;21505;-73
2022/08/16 06:41:59;;;;;;;3.40;2.25;;;22.20;59.40;;;;;;2369189;55;21449;-72
2022/08/16 06:44:26;;;;;;;5.05;2.60;;;22.20;59.50;;;;;;2268410;56;21040;-73
2022/08/16 06:46:52;;;;;;;4.40;2.62;;;22.30;59.60;;;;;;2293854;55;20985;-72
2022/08/16 06:49:19;;;;;;;3.80;2.60;;;22.30;59.60;;;;;;2265551;55;20969;-72
2022/08/16 06:51:47;;;;;;;4.65;2.60;;;22.30;59.70;;;;;;2485183;54;21005;-72
2022/08/16 06:54:16;;;;;;;5.18;2.22;;;22.40;59.90;;;;;;2259121;56;20945;-72
2022/08/16 06:56:44;;;;;;;3.60;2.35;;;22.40;59.80;;;;;;2262226;56;21004;-72
2022/08/16 06:59:13;;;;;;;5.05;2.83;;;22.50;60.70;;;;;;2265207;55;20994;-72
2022/08/16 07:01:40;;;;;;;3.37;2.03;;;22.50;60.20;;;;;;2298376;55;20992;-73
2022/08/16 07:04:06;;;;;;;3.20;2.05;;;22.50;60.00;;;;;;2409535;54;21469;-73
2022/08/16 07:06:32;;;;;;;3.58;1.92;;;22.60;60.00;;;;;;2268394;55;20974;-74
2022/08/16 07:08:58;;;;;;;3.87;2.75;;;22.60;60.00;;;;;;2258729;56;21009;-72
2022/08/16 07:11:25;;;;;;;3.62;2.20;;;22.70;60.30;;;;;;2264138;56;20984;-74
2022/08/16 07:13:53;;;;;;;3.60;2.40;;;22.70;60.30;;;;;;2261280;55;21383;-72
2022/08/16 07:16:20;;;;;;;4.53;2.37;;;22.80;60.40;;;;;;2265149;56;20989;-72
2022/08/16 07:18:49;;;;;;;3.97;2.50;;;22.90;60.40;;;;;;2263147;55;21037;-72
2022/08/16 07:21:15;;;;;;;4.12;2.25;;;22.90;60.40;;;;;;2275985;55;21795;-73
2022/08/16 07:23:45;;;;;;;5.25;2.15;;;23.00;60.50;;;;;;2261215;56;21000;-72
2022/08/16 07:26:14;;;;;;;4.50;2.50;;;23.00;60.50;;;;;;2266208;55;21856;-74
2022/08/16 07:28:43;;;;;;;3.28;2.20;;;23.10;60.60;;;;;;2261167;56;21816;-72
2022/08/16 07:31:09;;;;;;;3.53;2.37;;;23.20;60.50;;;;;;2277866;55;21604;-72
2022/08/16 07:33:37;;;;;;;5.15;2.72;;;23.20;60.50;;;;;;2362605;55;21049;-73
2022/08/16 07:36:04;;;;;;;4.95;2.85;;;23.30;60.50;;;;;;2263000;56;21073;-72
2022/08/16 07:38:36;;;;;;;4.68;2.83;;;23.40;60.40;;;;;;2264170;55;21601;-72
2022/08/16 07:41:03;;;;;;;;;;;23.50;60.40;;;;;;2247972;56;21454;-72
2022/08/16 07:43:29;;;;;;;5.10;2.47;;;23.60;60.30;;;;;;2284289;55;20077;-72
2022/08/16 07:45:56;;;;;;;3.30;2.15;;;23.60;60.00;;;;;;2333778;55;21779;-74
2022/08/16 07:48:22;;;;;;;3.97;2.50;;;23.70;60.10;;;;;;2268591;55;21033;-72
2022/08/16 07:50:48;;;;;;;4.18;2.47;;;23.80;60.10;;;;;;2259916;56;20976;-72
2022/08/16 07:53:15;;;;;;;4.65;2.28;;;23.80;60.00;;;;;;2260557;56;21931;-73
2022/08/16 07:55:41;;;;;;;5.20;2.45;;;23.90;60.20;;;;;;2264458;55;20993;-74
2022/08/16 07:58:08;;;;;;;4.35;2.70;;;24.00;60.30;;;;;;2265290;55;21610;-74
2022/08/16 08:00:36;;;;;;;4.57;2.33;;;24.10;60.30;;;;;;2262604;55;21024;-74
2022/08/16 08:03:03;;;;;;;4.15;2.47;;;24.10;60.10;;;;;;2267492;56;20979;-74
2022/08/16 08:05:30;;;;;;;3.78;2.10;;;24.20;59.90;;;;;;2264214;56;21279;-73
2022/08/16 08:07:56;;;;;;;4.18;2.30;;;24.30;59.70;;;;;;2265951;55;20941;-74
2022/08/16 08:10:23;;;;;;;4.05;2.45;;;24.30;59.50;;;;;;2264710;55;20965;-72
2022/08/16 08:12:51;;;;;;;4.43;2.12;;;24.40;59.60;;;;;;2263743;56;21009;-72
2022/08/16 08:15:18;;;;;;;3.60;2.15;;;24.50;59.50;;;;;;2261821;55;20957;-74
2022/08/16 08:17:49;;;;;;;3.72;2.35;;;24.60;59.50;;;;;;2265506;55;20990;-73
2022/08/16 08:20:18;;;;;;;3.00;2.25;;;24.60;59.20;;;;;;2267155;55;21882;-72
2022/08/16 08:22:46;;;;;;;5.07;2.78;;;24.70;59.10;;;;;;2259347;56;20996;-73
2022/08/16 08:25:12;;;;;;;4.85;2.78;;;24.70;59.10;;;;;;2356448;55;21085;-72
2022/08/16 08:27:39;;;;;;;3.33;2.25;;;24.80;59.20;;;;;;2260169;56;21110;-73
2022/08/16 08:30:06;;;;;;;3.45;2.30;;;24.80;59.10;;;;;;2260488;56;21000;-72
2022/08/16 08:32:32;;;;;;;3.83;2.30;;;24.90;59.10;;;;;;2357372;55;21044;-74
2022/08/16 08:35:01;;;;;;;4.12;2.40;;;25.00;58.90;;;;;;2261593;56;21077;-72
2022/08/16 08:37:27;;;;;;;3.45;2.00;;;25.00;58.70;;;;;;2264639;55;21739;-74
2022/08/16 08:39:54;;;;;;;3.60;2.28;;;25.10;58.50;;;;;;2485699;55;21431;-73
2022/08/16 08:42:21;;;;;;;3.72;2.40;;;25.20;58.30;;;;;;2370682;55;21921;-72
2022/08/16 08:44:47;;;;;;;3.37;2.47;;;25.20;58.10;;;;;;2264516;55;20950;-72
2022/08/16 08:47:13;;;;;;;5.20;2.80;;;25.30;58.20;;;;;;2264449;56;20932;-72
2022/08/16 08:49:40;;;;;;;5.05;2.62;;;25.30;58.30;;;;;;2267579;56;21002;-75
2022/08/16 08:52:06;;;;;;;4.53;2.67;;;25.40;58.10;;;;;;2258603;56;20989;-72
2022/08/16 08:54:33;;;;;;;4.00;2.60;;;25.40;58.00;;;;;;2447580;54;21537;-73
2022/08/16 08:56:59;;;;;;;5.18;2.53;;;25.50;57.80;;;;;;2262206;56;20958;-74
2022/08/16 08:59:26;;;;;;;4.35;2.50;;;25.50;57.80;;;;;;2264037;56;21025;-73
2022/08/16 09:01:53;;;;;;;4.90;2.70;;;25.60;57.70;;;;;;2261383;56;21924;-73
2022/08/16 09:04:20;;;;;;;3.80;2.80;;;25.70;57.60;;;;;;2259930;56;21924;-72
2022/08/16 09:06:46;;;;;;;3.60;2.65;;;25.70;57.10;;;;;;2299323;55;20933;-72
2022/08/16 09:09:12;;;;;;;3.78;2.37;;;25.70;56.80;;;;;;2371400;55;20993;-72
2022/08/16 09:11:42;;;;;;;4.18;2.33;;;25.80;56.50;;;;;;2259413;56;21017;-71
2022/08/16 09:14:09;;;;;;;4.00;2.47;;;25.80;56.30;;;;;;2260588;56;20944;-72
2022/08/16 09:16:37;;;;;;;4.03;2.97;;;25.90;56.20;;;;;;2262722;55;21033;-72
2022/08/16 09:19:03;;;;;;;3.67;2.47;;;25.90;56.20;;;;;;2261867;56;20973;-74
2022/08/16 09:21:30;;;;;;;3.80;2.55;;;26.00;56.10;;;;;;2259778;56;21016;-72
2022/08/16 09:23:56;;;;;;;3.50;2.15;;;26.00;56.00;;;;;;2272693;55;20961;-72
2022/08/16 09:26:23;;;;;;;3.35;2.10;;;26.10;56.00;;;;;;2273010;55;21085;-72
2022/08/16 09:28:50;;;;;;;3.97;2.10;;;26.20;56.10;;;;;;2264023;56;20961;-72
2022/08/16 09:31:17;;;;;;;2.85;1.98;;;26.20;56.10;;;;;;2263347;56;21980;-71
2022/08/16 09:33:46;;;;;;;4.30;2.42;;;26.30;56.00;;;;;;2263303;56;20990;-72
2022/08/16 09:36:13;;;;;;;3.90;2.50;;;26.30;55.90;;;;;;2260951;56;21008;-71
2022/08/16 09:38:40;;;;;;;3.72;2.17;;;26.40;55.70;;;;;;2260063;56;21001;-69
2022/08/16 09:41:09;;;;;;;3.37;2.17;;;26.40;55.60;;;;;;2387242;55;21037;-68
2022/08/16 09:43:37;;;;;;;3.58;2.20;;;26.50;55.40;;;;;;2264989;56;21076;-71
2022/08/16 09:46:13;;;;;;;3.55;1.85;;;26.50;55.30;;;;;;2262461;56;20924;-73
2022/08/16 09:48:40;;;;;;;3.22;1.95;;;26.60;55.20;;;;;;2261844;56;21080;-72
2022/08/16 09:51:10;;;;;;;2.78;1.70;;;26.60;54.90;;;;;;2261453;56;21063;-71
2022/08/16 09:53:36;;;;;;;3.42;2.35;;;26.70;54.50;;;;;;2265298;56;21004;-72
2022/08/16 09:56:04;;;;;;;3.83;2.25;;;26.70;54.30;;;;;;2260640;56;20984;-72
2022/08/16 09:58:30;;;;;;;3.28;2.30;;;26.80;54.00;;;;;;2268571;55;20981;-72
2022/08/16 10:00:58;;;;;;;4.37;2.22;;;26.80;53.90;;;;;;2260581;56;20997;-72
2022/08/16 10:03:24;;;;;;;4.65;2.47;;;26.90;53.80;;;;;;2489180;55;20945;-72
2022/08/16 10:05:50;;;;;;;3.45;2.30;;;26.90;53.80;;;;;;2488697;55;21609;-72
2022/08/16 10:08:17;;;;;;;3.70;2.10;;;27.00;54.00;;;;;;2258876;56;20937;-71
2022/08/16 10:13:32;;;;;;;3.65;1.87;;;27.10;53.50;;;;;;2260997;56;20956;-72
2022/08/16 10:15:59;;;;;;;3.80;2.28;;;27.10;53.30;;;;;;2321615;55;21769;-72
2022/08/16 10:18:27;;;;;;;3.37;1.98;;;27.20;53.40;;;;;;2261381;56;21408;-72
2022/08/16 10:20:54;;;;;;;4.78;2.50;;;27.20;53.40;;;;;;2260544;56;20961;-72
2022/08/16 10:23:24;;;;;;;4.95;2.10;;;27.30;53.30;;;;;;2285706;55;20945;-72
2022/08/16 10:25:50;;;;;;;4.40;2.50;;;27.30;53.00;;;;;;2260416;56;20997;-72
2022/08/16 10:28:17;;;;;;;3.95;2.28;;;27.40;52.90;;;;;;2259437;56;20933;-72
2022/08/16 10:30:52;;;;;;;3.12;1.80;;;27.40;52.60;;;;;;2489048;55;21474;-72
2022/08/16 10:33:18;;;;;;;3.28;2.25;;;27.50;52.50;;;;;;2263355;56;21057;-72
2022/08/16 10:35:47;;;;;;;3.60;2.15;;;27.50;52.30;;;;;;2260417;56;20949;-71
2022/08/16 10:38:15;;;;;;;3.65;2.40;;;27.60;52.30;;;;;;2245061;55;21061;-72
2022/08/16 10:40:41;;;;;;;4.37;2.30;;;27.70;52.50;;;;;;2293172;55;21017;-69
2022/08/16 10:43:08;;;;;;;3.30;2.17;;;27.70;52.30;;;;;;2291025;55;21032;-70
2022/08/16 10:45:36;;;;;;;6.18;2.35;;;27.80;52.50;;;;;;2414233;55;21008;-69
2022/08/16 10:48:09;;;;;;;3.75;2.40;;;27.80;52.30;;;;;;2488939;55;21021;-70
2022/08/16 10:50:35;;;;;;;;;;;27.90;51.90;;;;;;2266805;56;20993;-71
2022/08/16 10:53:05;;;;;;;3.87;1.62;;;28.00;51.80;;;;;;2259338;56;20464;-70
2022/08/16 10:55:35;;;;;;;3.45;2.20;;;28.00;52.10;;;;;;2260734;56;21909;-71
2022/08/16 10:58:04;;;;;;;4.07;2.15;;;28.00;51.90;;;;;;2260334;56;21036;-71
2022/08/16 11:00:33;;;;;;;3.65;2.30;;;28.10;51.90;;;;;;2430398;55;20971;-72
2022/08/16 11:03:02;;;;;;;3.60;2.30;;;28.10;51.70;;;;;;2260224;56;21477;-71
2022/08/16 11:05:32;;;;;;;3.42;2.40;;;28.10;51.80;;;;;;2259736;56;20976;-72
2022/08/16 11:08:29;;;;;;;3.45;2.22;;;28.20;51.50;;;;;;2260134;56;21620;-71
2022/08/16 11:10:56;;;;;;;3.10;1.70;;;28.20;51.20;;;;;;2260351;59;21167;-70
2022/08/16 11:13:27;;;;;;;2.83;2.00;;;28.30;51.10;;;;;;2258677;59;21060;-70
2022/08/16 11:16:23;;;;;;;3.28;1.85;;;28.30;51.10;;;;;;2344441;55;22315;-70
2022/08/16 11:18:55;;;;;;;3.25;1.92;;;28.40;51.00;;;;;;2258498;56;22669;-70
2022/08/16 11:21:23;;;;;;;4.05;1.80;;;28.40;51.10;;;;;;2254879;56;21017;-70
2022/08/16 11:23:49;;;;;;;3.17;2.03;;;28.50;51.30;;;;;;2259427;56;20936;-70
2022/08/16 11:26:15;;;;;;;3.42;2.00;;;28.50;50.90;;;;;;2269132;55;21037;-70
2022/08/16 11:28:42;;;;;;;3.72;2.20;;;28.60;50.60;;;;;;2250665;55;21156;-70
2022/08/16 11:31:39;;;;;;;3.42;1.90;;;28.60;50.60;;;;;;2245387;56;21476;-70
2022/08/16 11:34:05;;;;;;;3.40;2.03;;;28.70;50.40;;;;;;2488130;55;20945;-70
2022/08/16 11:36:32;;;;;;;3.20;1.92;;;28.70;50.20;;;;;;2257804;56;20925;-71
2022/08/16 11:39:01;;;;;;;3.60;2.00;;;28.80;50.10;;;;;;2259252;56;20981;-71
2022/08/16 11:41:27;;;;;;;3.08;2.10;;;28.80;49.60;;;;;;2262373;56;22024;-70
2022/08/16 11:43:53;;;;;;;4.18;1.90;;;28.90;49.60;;;;;;2260923;56;20948;-69
2022/08/16 11:46:20;;;;;;;3.20;1.67;;;29.00;49.60;;;;;;2260582;56;20940;-70
2022/08/16 11:48:47;;;;;;;3.65;1.92;;;29.00;49.60;;;;;;2449970;55;20945;-71
2022/08/16 11:51:13;;;;;;;3.05;1.77;;;29.10;49.60;;;;;;2260476;56;20953;-71
2022/08/16 11:53:39;;;;;;;3.10;1.90;;;29.10;49.70;;;;;;2266447;55;20980;-71
2022/08/16 11:56:06;;;;;;;3.30;1.73;;;29.20;49.20;;;;;;2261112;56;21045;-70
2022/08/16 11:58:32;;;;;;;3.35;1.90;;;29.20;49.00;;;;;;2415891;55;21036;-70
2022/08/16 12:01:02;;;;;;;3.62;1.95;;;29.20;49.10;;;;;;2262947;56;20997;-71
2022/08/16 12:03:30;;;;;;;3.22;1.80;;;29.30;48.70;;;;;;2488419;55;21100;-70
2022/08/16 12:06:02;;;;;;;2.80;1.67;;;29.30;48.50;;;;;;2262614;56;20973;-70
2022/08/16 12:08:30;;;;;;;3.72;1.85;;;29.40;48.40;;;;;;2262462;55;20990;-70
2022/08/16 12:10:58;;;;;;;2.95;1.62;;;29.50;48.30;;;;;;2260089;56;20957;-71
2022/08/16 12:13:25;;;;;;;3.12;1.87;;;29.50;48.10;;;;;;2261884;56;20940;-70
2022/08/16 12:16:00;;;;;;;3.67;1.92;;;29.50;47.70;;;;;;2393518;54;20957;-71
2022/08/16 12:18:28;;;;;;;3.15;1.80;;;29.60;47.70;;;;;;2263170;56;21036;-71
2022/08/16 12:20:55;;;;;;;3.65;1.80;;;29.70;47.60;;;;;;2259052;56;21095;-72
2022/08/16 12:23:22;;;;;;;4.40;2.08;;;29.70;47.50;;;;;;2258972;56;20953;-70
2022/08/16 12:25:48;;;;;;;2.90;1.95;;;29.80;47.20;;;;;;2266885;56;21465;-70
2022/08/16 12:28:15;;;;;;;2.97;1.87;;;29.80;47.40;;;;;;2259701;56;21056;-71
2022/08/16 12:30:43;;;;;;;2.83;1.90;;;29.90;47.60;;;;;;2259277;56;21032;-72
2022/08/16 12:33:11;;;;;;;3.90;2.00;;;29.90;47.50;;;;;;2488810;55;20996;-70
2022/08/16 12:35:37;;;;;;;4.57;2.12;;;30.00;47.30;;;;;;2281004;55;20973;-71
2022/08/16 12:38:04;;;;;;;3.00;1.70;;;30.00;47.10;;;;;;2260291;56;21052;-72
2022/08/16 12:40:33;;;;;;;4.12;2.25;;;30.00;46.80;;;;;;2341267;55;21021;-71
2022/08/16 12:43:00;;;;;;;2.80;1.73;;;30.00;46.70;;;;;;2263084;56;20962;-71
2022/08/16 12:45:31;;;;;;;3.20;1.50;;;30.00;46.50;;;;;;2487665;55;21802;-71
2022/08/16 12:50:59;;;;;;;2.55;1.35;;;30.10;46.20;;;;;;2263572;56;20370;-72
2022/08/16 12:53:27;;;;;;;2.67;1.15;;;30.20;46.30;;;;;;2488299;55;20933;-70
2022/08/16 12:55:54;;;;;;;2.72;1.48;;;30.20;46.10;;;;;;2268983;55;20985;-71
2022/08/16 12:58:20;;;;;;;2.53;1.45;;;30.30;45.80;;;;;;2264789;56;21509;-71
2022/08/16 13:00:47;;;;;;;3.28;1.83;;;30.30;45.60;;;;;;2407209;55;20952;-71